• Join FlightAware (Why Join?)
  • Login
  • US Flag 
06:24AM EST


 

Airport Tracker/Info


-or-


 

Live Flight TrackerFlight Track Log ✈ SKW6345 ✈ 23-Dec-2013 ✈ KASE - KDEN

Flight Track Log - Related Links

Times and Time Zones

All times are in EST time to prevent confusion due to time zone crossing. See the SKW6345 flight status page for this flight to view local times or setup timezone preferences in your user account.

Time Position Orientation Groundspeed Altitude Reporting Facility
EST Latitude Longitude Course Direction KTS MPH feet Rate Location/Type
12:30PM 39.2486 -106.8703 101° East 183 211 25,000  Level Denver Center
12:31PM 39.2661 -106.9297 291° West 209 241 12,200 -4,800 Descending Denver Center
12:32PM 39.3047 -106.9875 311° West 232 267 15,100 2,640 Climbing Denver Center
12:33PM 39.3501 -106.4670 104° East  Level FlightAware Approximate
12:33PM 39.3483 -106.8917 60° Northeast 300 345 17,700  Level Denver Center
12:34PM 39.3313 -106.3537 101° East  Level FlightAware Approximate
12:34PM 39.3494 -106.7700 89° East 339 390 19,800  Level Denver Center
12:35PM 39.3133 -106.2360 101° East  Level FlightAware Approximate
12:35PM 39.3514 -106.6142 89° East 381 438 21,000  Level Denver Center
12:36PM 39.3464 -106.4861 93° East 375 432 21,000  Level Denver Center
12:37PM 39.3089 -106.3394 108° East 384 442 21,000  Level Denver Center
12:38PM 39.2619 -106.2236 118° Southeast 380 437 21,000  Level Denver Center
12:39PM 39.2025 -106.1053 123° Southeast 385 443 21,000  Level Denver Center
12:40PM 39.1436 -105.9883 123° Southeast 389 448 21,100  Climbing Denver Center
12:41PM 39.1286 -105.8658 99° East 369 425 21,000 -60 Descending Denver Center
12:42PM 39.2081 -105.7728 42° Northeast 322 371 21,000  Level Denver Center
12:43PM 39.2769 -105.7050 37° Northeast 314 361 21,000 -60 Level Denver Center
12:44PM 39.3369 -105.6128 50° Northeast 340 391 20,900 -300 Descending Denver Center
12:45PM 39.3922 -105.4892 60° Northeast 390 449 20,500 -1,200 Descending Denver Center
12:46PM 39.4608 -105.3603 55° Northeast 385 443 18,500 -1,500 Descending Denver Center
12:47PM 39.5183 -105.2481 56° Northeast 374 430 17,400 -1,380 Descending Denver Center
12:49PM 39.5822 -105.1289 55° Northeast 375 432 15,700 -1,200 Descending Denver Center
12:50PM 39.6378 -105.0186 57° Northeast 369 425 14,900 -1,020 Descending Denver Center
12:51PM 39.6911 -104.9167 56° Northeast 315 362 13,600 -960 Descending Denver Center
12:52PM 39.7464 -104.8442 45° Northeast 294 338 13,000 -960 Descending Denver Center
12:53PM 39.8225 -104.8408 North 272 313 11,700 -1,020 Descending Denver Center
12:54PM 39.8953 -104.8394 North 233 268 11,000 -360 Descending Denver Center
12:55PM 39.9583 -104.8386 North 225 259 11,000 -780 Level Denver Center
12:56PM 40.0275 -104.8397 359° North 229 264 9,400 -1,320 Descending Denver Center
12:57PM 40.0900 -104.8394 360° North 224 258 8,300 -720 Descending Denver Center
12:58PM 40.0881 -104.7739 92° East 224 258 8,000 -240 Descending Denver Center
12:59PM 40.0331 -104.7278 147° Southeast 222 255 7,900 -480 Descending Denver Center
01:00PM 39.9797 -104.6978 157° South 204 235 7,100 -780 Descending Denver Center
01:01PM 39.9342 -104.6958 178° South 154 177 6,300 -780 Descending Denver Center
01:02PM 39.8986 -104.6961 180° South 131 151 5,500 -780 Descending Denver Center